Time;durP1;ratioP1;P1;durP2;ratioP2;P2;SDS_P1;SDS_P2;PMS_P1;PMS_P2;Temp;Humidity;BMP_temperature;BMP_pressure;BME280_temperature;BME280_humidity;BME280_pressure;Samples;Min_cycle;Max_cycle;Signal;HPM_P1;HPM_P2
2022/03/10 00:02:10;;;;;;;;;;;;;;;2.24;42.01;93355.09;2041081;70;20588;-72
2022/03/10 00:04:36;;;;;;;;;;;;;;;2.20;42.23;93365.84;2041293;70;20055;-73
2022/03/10 00:07:02;;;;;;;;;;;;;;;2.26;41.33;93362.91;2041347;70;20060;-73
2022/03/10 00:09:33;;;;;;;;;;;;;;;2.21;41.28;93358.97;2040601;70;20087;-73
2022/03/10 00:11:59;;;;;;;;;;;;;;;2.04;42.42;93364.16;2041300;70;20059;-73
2022/03/10 00:14:25;;;;;;;;;;;;;;;2.23;41.95;93367.50;2041239;70;20472;-72
2022/03/10 00:16:50;;;;;;;;;;;;;;;2.25;41.32;93369.75;2041099;70;20127;-72
2022/03/10 00:19:16;;;;;;;;;;;;;;;2.21;41.70;93363.78;2041120;70;20064;-73
2022/03/10 00:21:42;;;;;;;;;;;;;;;2.08;42.22;93375.69;2041234;70;20048;-74
2022/03/10 00:24:07;;;;;;;;;;;;;;;2.29;40.48;93384.03;2040995;70;20083;-73
2022/03/10 00:26:33;;;;;;;;;;;;;;;1.97;42.38;93376.69;2041150;70;20098;-73
2022/03/10 00:28:59;;;;;;;;;;;;;;;1.83;42.51;93380.78;2040815;70;20055;-74
2022/03/10 00:31:25;;;;;;;;;;;;;;;1.84;43.41;93385.06;2041117;70;20504;-73
2022/03/10 00:33:52;;;;;;;;;;;;;;;1.68;43.36;93386.16;2041142;70;20055;-73
2022/03/10 00:36:17;;;;;;;;;;;;;;;1.85;43.61;93397.66;2041199;70;20056;-73
2022/03/10 00:38:43;;;;;;;;;;;;;;;1.71;43.81;93396.94;2041142;70;20050;-74
2022/03/10 00:41:12;;;;;;;;;;;;;;;1.73;43.39;93399.16;2040980;70;20500;-74
2022/03/10 00:43:40;;;;;;;;;;;;;;;1.79;43.57;93397.03;2043241;70;20087;-73
2022/03/10 00:46:06;;;;;;;;;;;;;;;1.66;43.92;93395.03;2040413;70;20122;-74
2022/03/10 00:48:33;;;;;;;;;;;;;;;1.82;41.79;93401.50;2040924;70;20059;-73
2022/03/10 00:51:05;;;;;;;;;;;;;;;1.58;44.01;93396.22;2040901;70;20532;-74
2022/03/10 00:53:32;;;;;;;;;;;;;;;1.70;42.29;93398.22;2040516;70;20436;-74
2022/03/10 00:55:57;;;;;;;;;;;;;;;1.67;43.32;93396.50;2040763;70;20048;-74
2022/03/10 00:58:24;;;;;;;;;;;;;;;1.62;43.72;93394.59;2041172;70;20071;-75
2022/03/10 01:00:51;;;;;;;;;;;;;;;1.46;43.85;93404.75;2040356;70;20079;-75
2022/03/10 01:03:17;;;;;;;;;;;;;;;1.53;44.16;93398.56;2040160;70;20098;-75
2022/03/10 01:06:20;;;;;;;;;;;;;;;1.40;44.45;93397.81;2041069;70;20047;-75
2022/03/10 01:08:46;;;;;;;;;;;;;;;1.16;45.98;93402.31;2041024;70;20511;-74
2022/03/10 01:11:12;;;;;;;;;;;;;;;1.40;44.54;93400.59;2041090;70;20047;-73
2022/03/10 01:13:39;;;;;;;;;;;;;;;1.36;43.85;93397.41;2041045;70;20055;-74
2022/03/10 01:16:05;;;;;;;;;;;;;;;1.21;44.56;93398.69;2040993;70;20049;-74
2022/03/10 01:18:32;;;;;;;;;;;;;;;1.38;44.14;93392.06;2040595;70;20044;-73
2022/03/10 01:20:58;;;;;;;;;;;;;;;1.39;44.84;93399.84;2040996;70;20062;-74
2022/03/10 01:23:24;;;;;;;;;;;;;;;1.25;43.94;93393.56;2040462;70;20044;-74
2022/03/10 01:25:50;;;;;;;;;;;;;;;1.24;45.36;93391.34;2041068;70;20593;-74
2022/03/10 01:28:16;;;;;;;;;;;;;;;1.36;44.01;93389.06;2041070;70;20155;-74
2022/03/10 01:30:42;;;;;;;;;;;;;;;1.20;44.26;93388.88;2043195;70;20099;-75
2022/03/10 01:33:10;;;;;;;;;;;;;;;1.13;43.44;93389.50;2041013;70;20496;-75
2022/03/10 01:35:36;;;;;;;;;;;;;;;1.24;44.50;93392.06;2041024;70;20046;-74
2022/03/10 01:38:02;;;;;;;;;;;;;;;1.14;44.54;93390.97;2040597;70;20051;-75
2022/03/10 01:40:27;;;;;;;;;;;;;;;1.00;44.16;93395.03;2041071;70;20101;-75
2022/03/10 01:42:54;;;;;;;;;;;;;;;0.86;46.18;93387.97;2041408;70;20491;-75
2022/03/10 01:45:21;;;;;;;;;;;;;;;0.76;46.70;93384.88;2043725;70;20812;-74
2022/03/10 01:47:52;;;;;;;;;;;;;;;0.92;45.43;93383.09;2041519;70;20059;-76
2022/03/10 01:50:19;;;;;;;;;;;;;;;0.77;45.65;93384.34;2041529;70;20501;-75
2022/03/10 01:52:45;;;;;;;;;;;;;;;0.90;45.19;93386.38;2041344;70;20819;-74
2022/03/10 01:55:11;;;;;;;;;;;;;;;1.03;44.24;93382.88;2041478;70;20503;-74
2022/03/10 01:57:37;;;;;;;;;;;;;;;0.65;46.32;93385.84;2040682;70;20135;-74
2022/03/10 02:00:04;;;;;;;;;;;;;;;0.94;44.75;93375.72;2041092;70;20436;-75
2022/03/10 02:02:30;;;;;;;;;;;;;;;0.98;44.54;93376.16;2041287;70;20082;-75
2022/03/10 02:04:56;;;;;;;;;;;;;;;0.91;44.93;93376.03;2041443;70;20072;-75
2022/03/10 02:10:18;;;;;;;;;;;;;;;0.74;45.84;93368.78;2043086;70;20082;-75
2022/03/10 02:12:44;;;;;;;;;;;;;;;0.76;45.00;93369.00;2041445;70;20062;-75
2022/03/10 02:17:54;;;;;;;;;;;;;;;0.65;45.39;93377.50;2041168;70;20495;-75
2022/03/10 02:20:20;;;;;;;;;;;;;;;0.76;44.99;93374.53;2041152;70;20078;-74
2022/03/10 02:22:46;;;;;;;;;;;;;;;0.72;45.78;93373.34;2041301;70;20047;-74
2022/03/10 02:25:13;;;;;;;;;;;;;;;0.72;44.82;93368.56;2041323;70;20055;-73
2022/03/10 02:27:38;;;;;;;;;;;;;;;0.74;45.74;93368.78;2041448;70;20059;-73
2022/03/10 02:30:04;;;;;;;;;;;;;;;0.74;45.51;93359.72;2041268;70;20044;-73
2022/03/10 02:32:30;;;;;;;;;;;;;;;0.70;45.79;93362.81;2041417;70;20111;-74
2022/03/10 02:34:55;;;;;;;;;;;;;;;0.98;43.39;93372.66;2041371;70;20086;-73
2022/03/10 02:37:21;;;;;;;;;;;;;;;0.74;45.14;93363.25;2041644;70;20087;-74
2022/03/10 02:39:47;;;;;;;;;;;;;;;0.56;45.85;93377.19;2041343;70;20091;-74
2022/03/10 02:42:13;;;;;;;;;;;;;;;0.42;46.25;93382.69;2041434;70;20079;-73
2022/03/10 02:44:41;;;;;;;;;;;;;;;0.52;46.18;93380.25;2041458;70;20063;-73
2022/03/10 02:47:07;;;;;;;;;;;;;;;0.51;45.75;93392.63;2040754;70;20050;-74
2022/03/10 02:49:32;;;;;;;;;;;;;;;0.40;46.62;93387.25;2041504;70;20043;-75
2022/03/10 02:51:58;;;;;;;;;;;;;;;0.58;43.90;93389.22;2041206;70;20084;-75
2022/03/10 02:54:23;;;;;;;;;;;;;;;0.47;45.01;93389.41;2041299;70;20052;-75
2022/03/10 02:56:49;;;;;;;;;;;;;;;0.51;45.70;93389.84;2041332;70;20051;-74
2022/03/10 02:59:14;;;;;;;;;;;;;;;0.42;46.71;93393.03;2043288;70;20150;-73
2022/03/10 03:01:40;;;;;;;;;;;;;;;0.33;46.15;93391.38;2041340;70;20123;-74
2022/03/10 03:04:05;;;;;;;;;;;;;;;0.46;45.28;93388.66;2040738;70;20131;-74
2022/03/10 03:06:31;;;;;;;;;;;;;;;0.15;46.42;93386.63;2041088;70;20049;-74
2022/03/10 03:08:56;;;;;;;;;;;;;;;0.24;46.83;93387.00;2041138;70;20618;-74
2022/03/10 03:11:22;;;;;;;;;;;;;;;0.44;45.47;93390.47;2041288;70;20063;-74
2022/03/10 03:13:47;;;;;;;;;;;;;;;0.43;46.11;93388.97;2041034;70;20062;-73
2022/03/10 03:16:13;;;;;;;;;;;;;;;0.36;47.12;93387.56;2041194;70;20139;-74
2022/03/10 03:18:38;;;;;;;;;;;;;;;0.30;47.97;93388.91;2041283;70;20048;-74
2022/03/10 03:21:04;;;;;;;;;;;;;;;0.24;46.74;93384.22;2041216;70;20050;-76
2022/03/10 03:23:29;;;;;;;;;;;;;;;0.20;46.94;93383.78;2041306;70;20527;-74
2022/03/10 03:25:55;;;;;;;;;;;;;;;0.27;47.21;93389.97;2041126;70;20146;-74
2022/03/10 03:28:24;;;;;;;;;;;;;;;0.28;46.61;93389.47;2041125;70;20051;-76
2022/03/10 03:30:49;;;;;;;;;;;;;;;0.23;46.91;93393.81;2041155;70;20087;-76
2022/03/10 03:33:18;;;;;;;;;;;;;;;0.18;46.35;93391.88;2041528;70;20087;-77
2022/03/10 03:35:43;;;;;;;;;;;;;;;0.20;46.20;93402.41;2041526;70;20115;-76
2022/03/10 03:38:09;;;;;;;;;;;;;;;-0.20;47.41;93401.47;2041525;70;20067;-76
2022/03/10 03:40:34;;;;;;;;;;;;;;;-0.18;47.30;93408.00;2040920;70;20046;-76
2022/03/10 03:43:00;;;;;;;;;;;;;;;-0.22;47.70;93402.00;2041383;70;20060;-77
2022/03/10 03:45:26;;;;;;;;;;;;;;;-0.14;47.90;93404.91;2040841;70;20055;-76
2022/03/10 03:47:52;;;;;;;;;;;;;;;-0.43;48.47;93404.53;2041699;70;20384;-77
2022/03/10 03:50:17;;;;;;;;;;;;;;;-0.43;49.02;93401.03;2041333;70;20412;-77
2022/03/10 03:52:43;;;;;;;;;;;;;;;-0.33;48.00;93397.34;2041556;70;20050;-76
2022/03/10 03:55:08;;;;;;;;;;;;;;;-0.18;48.29;93396.16;2040528;70;20079;-75
2022/03/10 03:57:34;;;;;;;;;;;;;;;-0.06;47.06;93403.03;2041328;70;20477;-76
2022/03/10 03:59:59;;;;;;;;;;;;;;;-0.19;48.29;93411.28;2040334;70;20158;-75
2022/03/10 04:02:25;;;;;;;;;;;;;;;-0.45;49.38;93417.41;2041349;70;20150;-76
2022/03/10 04:04:50;;;;;;;;;;;;;;;-0.30;48.91;93417.72;2041082;70;20072;-76
2022/03/10 04:07:16;;;;;;;;;;;;;;;-0.38;48.31;93417.53;2041359;70;20075;-77
2022/03/10 04:09:42;;;;;;;;;;;;;;;-0.30;47.96;93424.00;2041311;70;20496;-77
2022/03/10 04:12:07;;;;;;;;;;;;;;;-0.40;48.48;93431.16;2041302;70;20059;-77
2022/03/10 04:14:33;;;;;;;;;;;;;;;-0.37;48.08;93426.59;2041211;70;20544;-78
2022/03/10 04:16:58;;;;;;;;;;;;;;;-0.34;47.66;93431.84;2041320;70;20135;-77
2022/03/10 04:19:24;;;;;;;;;;;;;;;-0.48;48.53;93423.97;2041305;70;20430;-77
2022/03/10 04:21:49;;;;;;;;;;;;;;;-0.56;48.59;93430.09;2041289;70;20079;-77
2022/03/10 04:24:15;;;;;;;;;;;;;;;-0.60;49.10;93437.94;2041350;70;20083;-74
2022/03/10 04:26:40;;;;;;;;;;;;;;;-0.56;49.14;93443.91;2041265;70;20063;-74
2022/03/10 04:29:06;;;;;;;;;;;;;;;-0.45;46.23;93445.06;2041185;70;20107;-74
2022/03/10 04:31:31;;;;;;;;;;;;;;;-0.76;49.37;93447.16;2041275;70;20056;-75
2022/03/10 04:33:57;;;;;;;;;;;;;;;-0.50;48.23;93441.09;2041302;70;20055;-76
2022/03/10 04:36:23;;;;;;;;;;;;;;;-0.49;48.51;93448.13;2040730;70;20055;-74
2022/03/10 04:38:50;;;;;;;;;;;;;;;-0.54;48.69;93446.19;2041238;70;20500;-74
2022/03/10 04:41:16;;;;;;;;;;;;;;;-0.64;49.81;93448.56;2043519;70;20087;-74
2022/03/10 04:43:41;;;;;;;;;;;;;;;-0.52;49.25;93435.31;2041159;70;20493;-75
2022/03/10 04:46:07;;;;;;;;;;;;;;;-0.69;49.09;93438.28;2041255;70;20050;-75
2022/03/10 04:48:32;;;;;;;;;;;;;;;-0.73;49.05;93439.84;2041306;70;20127;-75
2022/03/10 04:50:58;;;;;;;;;;;;;;;-0.71;49.88;93443.59;2041298;70;20139;-77
2022/03/10 04:53:23;;;;;;;;;;;;;;;-0.66;49.44;93450.34;2041245;70;20122;-75
2022/03/10 04:55:49;;;;;;;;;;;;;;;-0.73;49.12;93448.13;2041345;70;20487;-76
2022/03/10 04:58:14;;;;;;;;;;;;;;;-0.62;49.59;93462.59;2041258;70;20051;-75
2022/03/10 05:00:40;;;;;;;;;;;;;;;-0.74;49.54;93463.22;2041043;70;20163;-74
2022/03/10 05:03:06;;;;;;;;;;;;;;;-0.74;50.03;93457.69;2041212;70;20069;-76
2022/03/10 05:05:32;;;;;;;;;;;;;;;-0.68;49.40;93458.41;2041376;70;20494;-76
2022/03/10 05:07:57;;;;;;;;;;;;;;;-0.73;49.78;93459.97;2041176;70;20047;-77
2022/03/10 05:10:22;;;;;;;;;;;;;;;-0.84;49.07;93466.34;2041235;70;20143;-76
2022/03/10 05:12:49;;;;;;;;;;;;;;;-0.82;49.17;93465.84;2041379;70;20052;-76
2022/03/10 05:15:21;;;;;;;;;;;;;;;-0.77;48.71;93465.78;2041159;70;20048;-77
2022/03/10 05:17:47;;;;;;;;;;;;;;;-0.95;49.51;93469.22;2041748;70;20054;-76
2022/03/10 05:20:13;;;;;;;;;;;;;;;-0.97;49.57;93462.72;2041782;70;20056;-76
2022/03/10 05:22:42;;;;;;;;;;;;;;;-0.94;48.98;93467.22;2041653;70;20060;-77
2022/03/10 05:25:08;;;;;;;;;;;;;;;-1.03;49.83;93466.28;2041647;70;20055;-77
2022/03/10 05:27:33;;;;;;;;;;;;;;;-0.95;48.92;93463.72;2041813;70;20060;-75
2022/03/10 05:29:59;;;;;;;;;;;;;;;-0.94;49.75;93462.44;2041442;70;20139;-74
2022/03/10 05:32:24;;;;;;;;;;;;;;;-0.83;49.67;93465.06;2041623;70;20496;-74
2022/03/10 05:34:50;;;;;;;;;;;;;;;-0.77;48.57;93465.03;2041831;70;20063;-75
2022/03/10 05:37:15;;;;;;;;;;;;;;;-0.91;50.31;93466.19;2041640;70;20039;-75
2022/03/10 05:39:42;;;;;;;;;;;;;;;-0.91;50.99;93471.72;2041621;70;20484;-74
2022/03/10 05:42:07;;;;;;;;;;;;;;;-0.91;50.38;93464.16;2042906;70;20048;-74
2022/03/10 05:44:33;;;;;;;;;;;;;;;-0.88;50.23;93465.13;2044852;70;20143;-76
2022/03/10 05:46:58;;;;;;;;;;;;;;;-0.87;48.95;93466.63;2041883;70;20047;-77
2022/03/10 05:49:23;;;;;;;;;;;;;;;-1.04;48.43;93475.09;2041773;70;20075;-75
2022/03/10 05:51:49;;;;;;;;;;;;;;;-1.31;50.70;93466.53;2041829;70;20087;-77
2022/03/10 05:54:14;;;;;;;;;;;;;;;-1.00;49.10;93472.81;2041587;70;20055;-77
2022/03/10 05:56:40;;;;;;;;;;;;;;;-0.99;48.91;93481.84;2041632;70;20488;-75
2022/03/10 05:59:05;;;;;;;;;;;;;;;-1.13;50.76;93483.72;2041485;70;20140;-76
2022/03/10 06:01:31;;;;;;;;;;;;;;;-1.45;51.97;93489.75;2041687;70;20083;-75
2022/03/10 06:03:57;;;;;;;;;;;;;;;-1.23;51.20;93490.84;2040768;70;20134;-75
2022/03/10 06:06:23;;;;;;;;;;;;;;;-1.19;51.18;93496.81;2041603;70;20044;-75
2022/03/10 06:08:48;;;;;;;;;;;;;;;-1.14;50.45;93496.06;2041559;70;20055;-75
2022/03/10 06:11:14;;;;;;;;;;;;;;;-1.16;50.79;93495.81;2041523;70;20111;-76
2022/03/10 06:13:40;;;;;;;;;;;;;;;-1.30;51.10;93498.41;2041385;70;20051;-76
2022/03/10 06:16:05;;;;;;;;;;;;;;;-1.16;50.87;93498.56;2041667;70;20048;-75
2022/03/10 06:18:31;;;;;;;;;;;;;;;-1.25;51.23;93504.41;2041531;70;20054;-76
2022/03/10 06:20:56;;;;;;;;;;;;;;;-1.19;51.46;93502.34;2041078;70;20118;-76
2022/03/10 06:23:22;;;;;;;;;;;;;;;-1.06;51.01;93494.94;2041565;70;20576;-75
2022/03/10 06:25:47;;;;;;;;;;;;;;;-1.07;50.41;93501.75;2041515;70;20056;-77
2022/03/10 06:28:13;;;;;;;;;;;;;;;-1.21;51.40;93504.88;2041361;70;20059;-74
2022/03/10 06:30:38;;;;;;;;;;;;;;;-1.23;51.93;93501.91;2041389;70;20044;-75
2022/03/10 06:33:04;;;;;;;;;;;;;;;-1.17;51.78;93511.63;2041484;70;20409;-75
2022/03/10 06:35:30;;;;;;;;;;;;;;;-1.16;50.90;93502.06;2041455;70;20043;-74
2022/03/10 06:37:55;;;;;;;;;;;;;;;-1.20;51.35;93506.38;2040936;70;20488;-74
2022/03/10 06:40:21;;;;;;;;;;;;;;;-1.16;52.27;93510.38;2041579;70;20044;-74
2022/03/10 06:42:47;;;;;;;;;;;;;;;-1.30;52.35;93506.72;2041628;70;20055;-74
2022/03/10 06:45:12;;;;;;;;;;;;;;;-1.16;51.82;93510.38;2041401;70;20056;-74
2022/03/10 06:47:38;;;;;;;;;;;;;;;-1.10;51.31;93508.31;2041457;70;20095;-73
2022/03/10 06:50:06;;;;;;;;;;;;;;;-1.01;50.54;93512.75;2041488;70;20480;-75
2022/03/10 06:52:32;;;;;;;;;;;;;;;-0.99;51.25;93515.00;2041564;70;20075;-74
2022/03/10 06:54:57;;;;;;;;;;;;;;;-1.07;51.75;93506.53;2041508;70;20079;-74
2022/03/10 06:57:23;;;;;;;;;;;;;;;-0.97;50.42;93509.69;2041628;70;20051;-77
2022/03/10 06:59:49;;;;;;;;;;;;;;;-0.98;50.42;93503.44;2041351;70;20051;-75
2022/03/10 07:02:16;;;;;;;;;;;;;;;-0.97;51.23;93504.16;2040636;70;20484;-74
2022/03/10 07:04:42;;;;;;;;;;;;;;;-0.89;50.75;93507.88;2041986;70;20063;-76
2022/03/10 07:07:07;;;;;;;;;;;;;;;-0.96;51.65;93505.66;2041570;70;20048;-75
2022/03/10 07:09:33;;;;;;;;;;;;;;;-0.82;51.58;93507.31;2041568;70;20547;-74
2022/03/10 07:11:58;;;;;;;;;;;;;;;-0.89;52.03;93494.81;2041554;70;20051;-76
2022/03/10 07:14:24;;;;;;;;;;;;;;;-0.81;50.86;93498.50;2041442;70;20042;-77
2022/03/10 07:16:49;;;;;;;;;;;;;;;-0.77;51.41;93498.22;2041572;70;20088;-76
2022/03/10 07:19:15;;;;;;;;;;;;;;;-0.91;52.32;93485.53;2041526;70;20090;-76
2022/03/10 07:21:40;;;;;;;;;;;;;;;-0.82;51.72;93496.25;2041479;70;20158;-76
2022/03/10 07:24:06;;;;;;;;;;;;;;;-0.82;52.13;93488.72;2041459;70;20043;-77
2022/03/10 07:26:31;;;;;;;;;;;;;;;-0.75;50.36;93484.59;2041510;70;20464;-77
2022/03/10 07:29:00;;;;;;;;;;;;;;;-0.71;50.39;93490.59;2041226;70;20471;-77
2022/03/10 07:31:26;;;;;;;;;;;;;;;-0.68;50.43;93481.28;2041489;70;20044;-74
2022/03/10 07:33:52;;;;;;;;;;;;;;;-0.59;48.40;93480.19;2041341;70;20472;-77
2022/03/10 07:36:17;;;;;;;;;;;;;;;-0.56;49.70;93488.16;2041598;70;20055;-75
2022/03/10 07:38:43;;;;;;;;;;;;;;;-0.68;50.55;93477.78;2041344;70;20122;-76
2022/03/10 07:41:08;;;;;;;;;;;;;;;-0.59;50.48;93477.41;2041434;70;20048;-76
2022/03/10 07:43:33;;;;;;;;;;;;;;;-0.51;49.57;93472.78;2041393;70;20041;-73
2022/03/10 07:46:00;;;;;;;;;;;;;;;-0.54;50.04;93474.59;2041294;70;20142;-72
2022/03/10 07:48:26;;;;;;;;;;;;;;;-0.39;47.34;93465.09;2041361;70;20050;-73
2022/03/10 07:50:52;;;;;;;;;;;;;;;-0.51;49.91;93467.25;2041448;70;20048;-75
2022/03/10 07:53:19;;;;;;;;;;;;;;;-0.34;48.74;93473.34;2041447;70;20055;-76
2022/03/10 07:55:45;;;;;;;;;;;;;;;-0.30;47.67;93467.53;2041365;70;20150;-75
2022/03/10 07:58:11;;;;;;;;;;;;;;;-0.37;48.86;93465.31;2041416;70;20157;-78
2022/03/10 08:00:36;;;;;;;;;;;;;;;-0.43;49.98;93465.41;2041140;70;20147;-76
2022/03/10 08:03:02;;;;;;;;;;;;;;;-0.34;50.40;93456.00;2041374;70;20043;-77
2022/03/10 08:05:27;;;;;;;;;;;;;;;-0.23;50.96;93457.88;2041345;70;20051;-77
2022/03/10 08:07:53;;;;;;;;;;;;;;;0.54;48.00;93446.22;2041458;70;20094;-78
2022/03/10 08:10:18;;;;;;;;;;;;;;;0.96;47.36;93450.81;2041377;70;20047;-77
2022/03/10 08:12:43;;;;;;;;;;;;;;;1.51;49.91;93445.53;2041289;70;20052;-74
2022/03/10 08:15:09;;;;;;;;;;;;;;;2.04;46.48;93447.50;2041175;70;20158;-74
2022/03/10 08:17:36;;;;;;;;;;;;;;;2.66;47.99;93441.31;2041288;70;20087;-74
2022/03/10 08:20:01;;;;;;;;;;;;;;;3.61;47.08;93440.91;2041510;70;20547;-75
2022/03/10 08:22:27;;;;;;;;;;;;;;;4.07;46.21;93441.91;2041364;70;20112;-78
2022/03/10 08:24:52;;;;;;;;;;;;;;;4.33;43.86;93434.56;2041217;70;20039;-76
2022/03/10 08:27:17;;;;;;;;;;;;;;;4.72;43.72;93430.59;2041234;70;20496;-78
2022/03/10 08:29:43;;;;;;;;;;;;;;;4.78;42.01;93427.63;2041280;70;20130;-79
2022/03/10 08:32:09;;;;;;;;;;;;;;;5.28;41.63;93428.75;2041250;70;20044;-75
2022/03/10 08:34:35;;;;;;;;;;;;;;;5.28;40.57;93434.34;2041471;70;20051;-75
2022/03/10 08:37:01;;;;;;;;;;;;;;;6.01;39.40;93431.81;2041457;70;20067;-75
2022/03/10 08:39:26;;;;;;;;;;;;;;;6.34;38.04;93431.91;2041484;70;20040;-76
2022/03/10 08:41:51;;;;;;;;;;;;;;;6.87;37.09;93414.81;2041281;70;20147;-76
2022/03/10 08:44:17;;;;;;;;;;;;;;;7.16;35.69;93420.03;2041175;70;20060;-75
2022/03/10 08:46:43;;;;;;;;;;;;;;;7.19;34.52;93413.25;2041443;70;20055;-77
2022/03/10 08:49:09;;;;;;;;;;;;;;;7.23;34.36;93408.00;2041295;70;20058;-75
2022/03/10 08:51:34;;;;;;;;;;;;;;;7.95;33.59;93397.06;2041662;70;20044;-79
2022/03/10 08:54:00;;;;;;;;;;;;;;;8.27;32.90;93393.34;2041734;70;20480;-79
2022/03/10 08:56:25;;;;;;;;;;;;;;;8.77;31.39;93405.06;2041671;70;20418;-78
2022/03/10 08:58:50;;;;;;;;;;;;;;;8.10;31.24;93400.44;2043629;70;20166;-79
2022/03/10 09:01:16;;;;;;;;;;;;;;;9.42;31.37;93400.91;2041649;70;20431;-77
2022/03/10 09:03:42;;;;;;;;;;;;;;;9.97;30.11;93399.38;2043897;70;20143;-74
2022/03/10 09:06:10;;;;;;;;;;;;;;;9.33;29.66;93399.53;2041670;70;20054;-76
2022/03/10 09:08:36;;;;;;;;;;;;;;;9.79;28.66;93400.84;2041726;70;20115;-76
2022/03/10 09:11:02;;;;;;;;;;;;;;;10.85;28.98;93395.19;2041726;70;20134;-75
2022/03/10 09:13:28;;;;;;;;;;;;;;;11.61;27.98;93398.34;2041946;70;20551;-78
2022/03/10 09:15:55;;;;;;;;;;;;;;;11.06;28.96;93394.56;2041945;70;20503;-77
2022/03/10 09:18:20;;;;;;;;;;;;;;;11.73;28.62;93386.38;2041759;70;20068;-77
2022/03/10 09:20:45;;;;;;;;;;;;;;;11.95;27.71;93402.03;2041816;70;20481;-78
2022/03/10 09:23:11;;;;;;;;;;;;;;;12.18;26.88;93390.88;2041852;70;20051;-78
2022/03/10 09:25:37;;;;;;;;;;;;;;;12.06;26.62;93398.53;2041680;70;20567;-78
2022/03/10 09:28:02;;;;;;;;;;;;;;;12.27;27.65;93391.41;2041679;70;20711;-79
2022/03/10 09:30:29;;;;;;;;;;;;;;;12.27;26.72;93383.66;2041562;70;20571;-78
2022/03/10 09:32:57;;;;;;;;;;;;;;;13.57;25.43;93390.41;2041619;70;20059;-78
2022/03/10 09:35:23;;;;;;;;;;;;;;;13.47;24.55;93384.88;2041677;70;20142;-78
2022/03/10 09:37:48;;;;;;;;;;;;;;;12.34;25.37;93374.25;2041651;70;20489;-77
2022/03/10 09:40:14;;;;;;;;;;;;;;;12.23;23.79;93379.84;2041618;70;20476;-76
2022/03/10 09:42:39;;;;;;;;;;;;;;;12.82;24.99;93375.88;2041584;70;20115;-76
2022/03/10 09:45:07;;;;;;;;;;;;;;;13.46;25.02;93383.38;2041533;70;20046;-76
2022/03/10 09:47:33;;;;;;;;;;;;;;;13.83;24.19;93385.59;2041571;70;20135;-75
2022/03/10 09:50:01;;;;;;;;;;;;;;;14.81;22.29;93377.09;2041555;70;20477;-76
2022/03/10 09:52:27;;;;;;;;;;;;;;;15.37;21.30;93370.94;2041675;70;20055;-75
2022/03/10 09:54:53;;;;;;;;;;;;;;;14.99;21.54;93370.34;2041546;70;20119;-76
2022/03/10 09:57:20;;;;;;;;;;;;;;;14.88;20.91;93367.56;2041449;70;20094;-77
2022/03/10 09:59:53;;;;;;;;;;;;;;;15.38;21.27;93372.41;2040895;70;20055;-77
2022/03/10 10:02:18;;;;;;;;;;;;;;;16.17;19.54;93360.91;2040588;70;20480;-75
2022/03/10 10:04:44;;;;;;;;;;;;;;;15.57;20.26;93359.94;2040546;70;20115;-76
2022/03/10 10:07:11;;;;;;;;;;;;;;;16.00;19.05;93351.56;2041155;70;20047;-77
2022/03/10 10:09:43;;;;;;;;;;;;;;;14.40;19.91;93354.94;2040646;70;20051;-76
2022/03/10 10:12:09;;;;;;;;;;;;;;;15.06;20.14;93343.03;2040962;70;20059;-76
2022/03/10 10:14:39;;;;;;;;;;;;;;;15.52;18.88;93341.97;2040870;70;20066;-77
2022/03/10 10:17:05;;;;;;;;;;;;;;;16.44;18.71;93337.38;2040912;70;20417;-78
2022/03/10 10:19:34;;;;;;;;;;;;;;;15.12;18.82;93337.72;2040306;70;20044;-76
2022/03/10 10:22:09;;;;;;;;;;;;;;;15.19;19.16;93330.25;2041098;70;20090;-75
2022/03/10 10:24:35;;;;;;;;;;;;;;;16.23;18.74;93324.28;2041013;70;20058;-77
2022/03/10 10:27:19;;;;;;;;;;;;;;;16.40;19.32;93320.88;2041058;70;20064;-75
2022/03/10 10:29:49;;;;;;;;;;;;;;;17.13;19.11;93315.09;2040608;70;20216;-77
2022/03/10 10:32:25;;;;;;;;;;;;;;;17.52;18.11;93309.06;2041048;70;20059;-76
2022/03/10 10:34:58;;;;;;;;;;;;;;;17.60;17.04;93307.97;2040971;70;20095;-77
2022/03/10 10:37:24;;;;;;;;;;;;;;;18.08;16.77;93305.78;2041024;70;20511;-78
2022/03/10 10:39:51;;;;;;;;;;;;;;;17.54;17.71;93303.47;2041047;70;20044;-77
2022/03/10 10:42:16;;;;;;;;;;;;;;;18.59;18.09;93300.06;2040983;70;20064;-77
2022/03/10 10:44:42;;;;;;;;;;;;;;;17.99;17.13;93299.00;2040951;70;20086;-77
2022/03/10 10:47:08;;;;;;;;;;;;;;;18.66;16.05;93301.06;2043248;70;20404;-76
2022/03/10 10:49:37;;;;;;;;;;;;;;;19.61;15.17;93301.22;2041038;70;20123;-76
2022/03/10 10:52:02;;;;;;;;;;;;;;;18.58;16.10;93295.75;2040881;70;20047;-76
2022/03/10 10:54:31;;;;;;;;;;;;;;;19.70;16.64;93291.56;2041076;70;20463;-75
2022/03/10 10:56:58;;;;;;;;;;;;;;;19.35;14.97;93288.78;2041059;70;20052;-77
2022/03/10 10:59:36;;;;;;;;;;;;;;;20.66;15.42;93280.56;2041205;70;20056;-76
2022/03/10 11:02:06;;;;;;;;;;;;;;;19.94;15.17;93280.25;2041012;70;20050;-77
2022/03/10 11:04:32;;;;;;;;;;;;;;;19.50;14.82;93273.63;2041294;70;20075;-77
2022/03/10 11:06:58;;;;;;;;;;;;;;;19.50;14.95;93267.94;2040908;70;20115;-77
2022/03/10 11:09:24;;;;;;;;;;;;;;;19.68;15.19;93265.75;2040966;70;20067;-75
2022/03/10 11:11:50;;;;;;;;;;;;;;;22.96;13.66;93268.44;2041046;70;20048;-77
2022/03/10 11:14:16;;;;;;;;;;;;;;;21.07;15.08;93253.22;2040911;70;20064;-76
2022/03/10 11:16:43;;;;;;;;;;;;;;;21.80;14.27;93257.50;2040832;70;20552;-75
2022/03/10 11:19:11;;;;;;;;;;;;;;;24.07;13.43;93252.16;2040806;70;20062;-77
2022/03/10 11:21:59;;;;;;;;;;;;;;;26.20;12.01;93251.09;2040829;70;20662;-77
2022/03/10 11:24:34;;;;;;;;;;;;;;;24.92;12.19;93250.03;2039618;70;20052;-77
2022/03/10 11:27:12;;;;;;;;;;;;;;;28.46;11.62;93245.50;2040938;70;20112;-76
2022/03/10 11:29:38;;;;;;;;;;;;;;;25.22;11.23;93232.53;2040175;70;20055;-76
2022/03/10 11:32:04;;;;;;;;;;;;;;;26.86;11.00;93229.41;2040841;70;20051;-72
2022/03/10 11:34:49;;;;;;;;;;;;;;;28.19;11.30;93230.19;2041083;70;20083;-72
2022/03/10 11:37:37;;;;;;;;;;;;;;;27.29;11.25;93218.88;2041215;70;20052;-73
2022/03/10 11:40:04;;;;;;;;;;;;;;;28.55;10.83;93233.19;2040135;70;20054;-73
2022/03/10 11:42:30;;;;;;;;;;;;;;;27.77;10.43;93220.63;2041235;70;20044;-73
2022/03/10 11:45:10;;;;;;;;;;;;;;;27.62;11.01;93219.78;2040121;70;20119;-74
2022/03/10 11:47:37;;;;;;;;;;;;;;;30.59;10.02;93218.28;2041249;70;20090;-73
2022/03/10 11:50:20;;;;;;;;;;;;;;;29.83;10.15;93214.28;2041302;70;20563;-74
2022/03/10 11:52:56;;;;;;;;;;;;;;;30.06;9.33;93212.03;2041254;70;20127;-74
2022/03/10 11:55:23;;;;;;;;;;;;;;;31.83;9.41;93210.00;2041253;70;20078;-73
2022/03/10 11:57:54;;;;;;;;;;;;;;;32.69;8.89;93206.00;2041088;70;20047;-74
2022/03/10 12:00:24;;;;;;;;;;;;;;;31.95;9.07;93200.41;2041054;70;20083;-77
2022/03/10 12:02:59;;;;;;;;;;;;;;;33.30;8.71;93193.38;2041481;70;20082;-76
2022/03/10 12:05:24;;;;;;;;;;;;;;;33.69;8.19;93195.66;2041412;70;20062;-76
2022/03/10 12:07:51;;;;;;;;;;;;;;;34.73;8.12;93194.28;2041328;70;20051;-76
2022/03/10 12:10:17;;;;;;;;;;;;;;;32.04;8.53;93181.38;2041269;70;20119;-76
2022/03/10 12:12:43;;;;;;;;;;;;;;;33.34;8.20;93175.81;2041398;70;20135;-76
2022/03/10 12:15:30;;;;;;;;;;;;;;;32.61;8.50;93172.59;2041270;70;20047;-76
2022/03/10 12:17:56;;;;;;;;;;;;;;;34.47;7.70;93175.13;2040034;70;20480;-76
2022/03/10 12:20:26;;;;;;;;;;;;;;;34.53;6.66;93165.47;2041382;70;20073;-76
2022/03/10 12:23:03;;;;;;;;;;;;;;;34.90;8.15;93166.06;2041352;70;20071;-76
2022/03/10 12:25:30;;;;;;;;;;;;;;;34.25;7.61;93163.88;2043443;70;20472;-75
2022/03/10 12:27:56;;;;;;;;;;;;;;;35.54;7.76;93165.25;2041609;70;20178;-76
2022/03/10 12:30:24;;;;;;;;;;;;;;;33.21;6.46;93154.16;2040622;70;20491;-76
2022/03/10 12:32:51;;;;;;;;;;;;;;;33.77;7.91;93157.53;2040408;70;20090;-76
2022/03/10 12:35:20;;;;;;;;;;;;;;;32.88;7.31;93148.88;2041278;70;20051;-76
2022/03/10 12:37:46;;;;;;;;;;;;;;;32.67;7.40;93139.75;2041258;70;20468;-77
2022/03/10 12:40:16;;;;;;;;;;;;;;;30.38;7.54;93133.47;2041295;70;20138;-76
2022/03/10 12:42:41;;;;;;;;;;;;;;;34.01;7.02;93135.91;2041277;70;20139;-76
2022/03/10 12:45:08;;;;;;;;;;;;;;;34.61;7.65;93130.94;2041138;70;20054;-76
2022/03/10 12:47:33;;;;;;;;;;;;;;;35.95;7.06;93128.28;2041272;70;20052;-76
2022/03/10 12:49:59;;;;;;;;;;;;;;;35.88;6.41;93116.72;2041225;70;20084;-76
2022/03/10 12:52:27;;;;;;;;;;;;;;;35.71;6.70;93115.75;2041253;70;20047;-76
2022/03/10 12:54:55;;;;;;;;;;;;;;;35.18;6.99;93116.44;2041277;70;20072;-76